Time;durP1;ratioP1;P1;durP2;ratioP2;P2;SDS_P1;SDS_P2;PMS_P1;PMS_P2;Temp;Humidity;BMP_temperature;BMP_pressure;BME280_temperature;BME280_humidity;BME280_pressure;Samples;Min_cycle;Max_cycle;Signal;HPM_P1;HPM_P2
2022/05/10 00:00:54;;;;;;;0.00;0.00;;;;;;;13.26;52.19;99511.31;5046701;28;20111;-76
2022/05/10 00:03:23;;;;;;;0.00;0.00;;;;;;;13.22;52.24;99508.41;5046564;28;20036;-77
2022/05/10 00:05:49;;;;;;;0.00;0.00;;;;;;;13.21;52.32;99506.78;5050305;28;20025;-77
2022/05/10 00:08:17;;;;;;;0.10;0.10;;;;;;;13.17;52.28;99508.44;5050675;28;20060;-77
2022/05/10 00:10:45;;;;;;;0.00;0.00;;;;;;;13.18;52.11;99501.19;5048690;28;20040;-77
2022/05/10 00:13:11;;;;;;;0.00;0.00;;;;;;;13.11;52.30;99505.00;5049035;28;20029;-77
2022/05/10 00:15:38;;;;;;;0.08;0.08;;;;;;;13.08;52.37;99510.13;5049995;28;20033;-80
2022/05/10 00:18:04;;;;;;;0.00;0.00;;;;;;;13.05;52.44;99503.44;5046534;28;20395;-76
2022/05/10 00:20:29;;;;;;;0.00;0.00;;;;;;;12.97;52.80;99504.84;5050221;28;20028;-76
2022/05/10 00:22:55;;;;;;;0.00;0.00;;;;;;;12.91;53.08;99500.56;5050038;28;20037;-76
2022/05/10 00:25:26;;;;;;;0.00;0.00;;;;;;;12.82;53.15;99508.41;5050445;28;20025;-78
2022/05/10 00:27:51;;;;;;;0.00;0.00;;;;;;;12.72;53.36;99502.31;5048248;28;20128;-78
2022/05/10 00:30:17;;;;;;;0.10;0.10;;;;;;;12.64;53.18;99504.50;5049351;28;20511;-77
2022/05/10 00:32:43;;;;;;;0.00;0.00;;;;;;;12.48;53.22;99497.66;5048681;28;20033;-77
2022/05/10 00:35:21;;;;;;;0.00;0.00;;;;;;;12.35;53.73;99495.56;5050246;28;20833;-77
2022/05/10 00:37:49;;;;;;;0.10;0.10;;;;;;;12.20;53.91;99494.56;5050205;28;20041;-78
2022/05/10 00:40:17;;;;;;;0.00;0.00;;;;;;;12.11;54.02;99490.88;5048513;28;20050;-76
2022/05/10 00:42:50;;;;;;;0.00;0.00;;;;;;;12.07;54.39;99484.44;5049808;28;20059;-76
2022/05/10 00:45:23;;;;;;;0.00;0.00;;;;;;;11.99;54.87;99478.56;5050376;28;20508;-75
2022/05/10 00:48:31;;;;;;;0.00;0.00;;;;;;;11.94;55.04;99481.25;5049294;28;20025;-76
2022/05/10 00:51:35;;;;;;;0.00;0.00;;;;;;;11.93;55.52;99479.63;5043667;28;20052;-75
2022/05/10 00:54:01;;;;;;;0.00;0.00;;;;;;;11.89;55.94;99475.09;5049544;28;20098;-75
2022/05/10 00:56:35;;;;;;;0.00;0.00;;;;;;;11.86;55.63;99479.13;5047421;28;20041;-75
2022/05/10 00:59:10;;;;;;;0.00;0.00;;;;;;;11.80;56.12;99474.88;5049675;28;20017;-75
2022/05/10 01:01:36;;;;;;;0.00;0.00;;;;;;;11.77;56.83;99480.78;5047621;28;20503;-75
2022/05/10 01:04:17;;;;;;;0.00;0.00;;;;;;;11.78;56.30;99482.38;5049457;28;20049;-79
2022/05/10 01:06:51;;;;;;;0.00;0.00;;;;;;;11.76;56.16;99479.19;5048039;28;20037;-76
2022/05/10 01:09:45;;;;;;;0.00;0.00;;;;;;;11.77;56.58;99481.56;5049459;28;20048;-77
2022/05/10 01:12:31;;;;;;;0.00;0.00;;;;;;;11.72;56.47;99462.03;5049507;28;20041;-77
2022/05/10 01:14:59;;;;;;;0.00;0.00;;;;;;;11.76;56.85;99481.84;5046102;28;20033;-78
2022/05/10 01:17:25;;;;;;;0.00;0.00;;;;;;;11.74;56.58;99475.97;5047737;28;20032;-78
2022/05/10 01:19:50;;;;;;;0.00;0.00;;;;;;;11.71;56.42;99482.66;5049498;28;20025;-84
2022/05/10 01:22:24;;;;;;;0.05;0.05;;;;;;;11.68;56.44;99477.84;5048300;28;20140;-83
2022/05/10 01:25:10;;;;;;;0.00;0.00;;;;;;;11.68;56.00;99483.19;5048134;28;20033;-83
2022/05/10 01:27:47;;;;;;;0.00;0.00;;;;;;;11.62;56.40;99471.72;5051953;28;20029;-79
2022/05/10 01:30:20;;;;;;;0.00;0.00;;;;;;;11.58;56.67;99470.63;5050993;28;20056;-79
2022/05/10 01:35:47;;;;;;;0.00;0.00;;;;;;;11.54;56.84;99472.25;5046606;28;20522;-81
2022/05/10 01:38:51;;;;;;;0.00;0.00;;;;;;;11.52;56.83;99469.88;5051790;28;20124;-77
2022/05/10 01:41:32;;;;;;;0.00;0.00;;;;;;;11.48;56.83;99460.75;5037398;28;20045;-78
2022/05/10 01:44:05;;;;;;;0.00;0.00;;;;;;;11.47;57.32;99461.81;5052015;28;20039;-77
2022/05/10 01:46:31;;;;;;;0.00;0.00;;;;;;;11.45;56.74;99460.50;5051884;28;20039;-78
2022/05/10 01:49:13;;;;;;;0.00;0.00;;;;;;;11.42;57.34;99459.16;5067594;28;20033;-81
2022/05/10 01:52:06;;;;;;;0.00;0.00;;;;;;;11.36;57.61;99457.56;5067719;28;20098;-86
2022/05/10 01:54:41;;;;;;;0.00;0.00;;;;;;;11.33;57.28;99455.44;5067318;28;20091;-78
2022/05/10 01:57:13;;;;;;;0.00;0.00;;;;;;;11.28;58.04;99456.25;5066927;28;20037;-77
2022/05/10 01:59:55;;;;;;;0.00;0.00;;;;;;;11.24;58.12;99449.03;5050777;28;20029;-78
2022/05/10 02:02:25;;;;;;;0.00;0.00;;;;;;;11.16;58.54;99447.72;5051818;28;20120;-78
2022/05/10 02:04:57;;;;;;;0.00;0.00;;;;;;;11.11;58.66;99448.50;5052687;28;20025;-76
2022/05/10 02:07:25;;;;;;;0.00;0.00;;;;;;;11.08;58.65;99443.69;5066945;28;20033;-80
2022/05/10 02:10:06;;;;;;;0.10;0.10;;;;;;;11.09;58.76;99445.28;5046321;28;20112;-77
2022/05/10 02:12:44;;;;;;;0.00;0.00;;;;;;;11.11;58.98;99445.00;5041204;28;20804;-80
2022/05/10 02:15:24;;;;;;;0.00;0.00;;;;;;;11.11;59.03;99450.38;5066910;28;20037;-77
2022/05/10 02:18:00;;;;;;;0.00;0.00;;;;;;;11.07;59.47;99450.13;5050637;28;20128;-78
2022/05/10 02:20:33;;;;;;;0.00;0.00;;;;;;;11.03;58.81;99452.53;5045987;28;20045;-83
2022/05/10 02:23:30;;;;;;;0.00;0.00;;;;;;;11.05;58.53;99452.25;5043374;28;20033;-81
2022/05/10 02:26:06;;;;;;;0.00;0.00;;;;;;;11.00;58.03;99450.38;5066477;28;20144;-77
2022/05/10 02:29:02;;;;;;;0.00;0.00;;;;;;;10.98;57.62;99449.06;5061473;28;20071;-78
2022/05/10 02:34:30;;;;;;;0.00;0.00;;;;;;;10.94;57.66;99450.66;5051013;28;20424;-77
2022/05/10 02:36:55;;;;;;;0.00;0.00;;;;;;;10.85;57.74;99453.06;5049607;28;20503;-78
2022/05/10 02:39:21;;;;;;;0.00;0.00;;;;;;;10.80;57.87;99453.88;5050473;28;20120;-77
2022/05/10 02:41:46;;;;;;;0.00;0.00;;;;;;;10.73;58.01;99453.34;5047578;28;20060;-85
2022/05/10 02:44:12;;;;;;;0.00;0.00;;;;;;;10.71;58.23;99458.16;5066693;28;20578;-78
2022/05/10 02:46:37;;;;;;;0.00;0.00;;;;;;;10.63;57.97;99451.47;5049988;28;20108;-81
2022/05/10 02:49:03;;;;;;;0.00;0.00;;;;;;;10.60;58.23;99461.88;5066875;28;20040;-77
2022/05/10 02:51:28;;;;;;;0.10;0.10;;;;;;;10.58;58.60;99456.78;5037796;28;20083;-78
2022/05/10 02:53:54;;;;;;;0.00;0.00;;;;;;;10.57;58.65;99458.66;5049917;28;20456;-85
2022/05/10 02:56:24;;;;;;;0.10;0.10;;;;;;;10.55;58.55;99460.78;5066978;28;20043;-76
2022/05/10 02:58:57;;;;;;;0.00;0.00;;;;;;;10.54;59.08;99461.06;5046943;28;20025;-77
2022/05/10 03:01:38;;;;;;;0.00;0.00;;;;;;;10.55;58.79;99468.81;5031753;28;20033;-76
2022/05/10 03:04:08;;;;;;;0.00;0.00;;;;;;;10.52;58.75;99460.53;5066485;28;20025;-76
2022/05/10 03:06:36;;;;;;;0.00;0.00;;;;;;;10.50;58.73;99462.69;5051481;28;20033;-77
2022/05/10 03:09:03;;;;;;;0.03;0.03;;;;;;;10.53;59.03;99470.97;5051367;28;20036;-75
2022/05/10 03:11:28;;;;;;;0.00;0.00;;;;;;;10.48;59.40;99464.81;5050516;28;20611;-75
2022/05/10 03:13:55;;;;;;;0.40;0.17;;;;;;;10.59;59.07;99469.09;5044905;28;20025;-76
2022/05/10 03:16:22;;;;;;;0.00;0.00;;;;;;;10.63;59.28;99469.38;5041196;28;20037;-76
2022/05/10 03:18:48;;;;;;;0.00;0.00;;;;;;;10.77;59.27;99461.63;5050919;28;20025;-76
2022/05/10 03:21:14;;;;;;;0.00;0.00;;;;;;;11.02;58.24;99463.50;5051041;28;20093;-76
2022/05/10 03:23:40;;;;;;;0.00;0.00;;;;;;;11.34;57.33;99465.09;5065881;28;20022;-77
2022/05/10 03:26:06;;;;;;;0.00;0.00;;;;;;;11.69;56.45;99458.84;5050579;28;20033;-78
2022/05/10 03:28:31;;;;;;;0.00;0.00;;;;;;;12.08;55.64;99459.25;5049857;28;20025;-76
2022/05/10 03:30:57;;;;;;;0.00;0.00;;;;;;;12.48;54.65;99460.09;5065649;28;20060;-76
2022/05/10 03:33:23;;;;;;;0.00;0.00;;;;;;;12.88;54.12;99455.50;5050393;28;20029;-74
2022/05/10 03:35:48;;;;;;;0.00;0.00;;;;;;;13.26;52.85;99447.66;5050719;28;20040;-76
2022/05/10 03:38:14;;;;;;;0.00;0.00;;;;;;;13.71;51.90;99455.53;5050674;28;20526;-77
2022/05/10 03:40:40;;;;;;;0.00;0.00;;;;;;;14.17;50.75;99453.38;5048349;28;20045;-76
2022/05/10 03:43:08;;;;;;;0.00;0.00;;;;;;;14.58;49.25;99455.47;5050597;28;20511;-75
2022/05/10 03:45:33;;;;;;;0.00;0.00;;;;;;;14.99;48.22;99457.56;5049324;28;20041;-76
2022/05/10 03:47:59;;;;;;;0.00;0.00;;;;;;;15.40;47.17;99452.53;5048826;28;20037;-76
2022/05/10 03:50:25;;;;;;;0.00;0.00;;;;;;;15.89;46.65;99448.34;5049423;28;20032;-77
2022/05/10 03:52:51;;;;;;;0.00;0.00;;;;;;;16.33;45.95;99452.28;5050415;28;20043;-77
2022/05/10 03:55:20;;;;;;;0.30;0.30;;;;;;;16.79;44.11;99455.81;5048634;28;20464;-78
2022/05/10 03:57:46;;;;;;;0.00;0.00;;;;;;;17.19;42.85;99459.75;5050234;28;20021;-75
2022/05/10 04:00:16;;;;;;;0.03;0.03;;;;;;;17.56;42.05;99469.28;5049164;28;20106;-77
2022/05/10 04:02:43;;;;;;;0.00;0.00;;;;;;;17.97;41.00;99461.16;5049918;28;20021;-75
2022/05/10 04:05:09;;;;;;;0.00;0.00;;;;;;;18.31;40.23;99462.34;5049930;28;20037;-74
2022/05/10 04:07:35;;;;;;;0.10;0.10;;;;;;;18.64;39.71;99459.16;5050519;28;20083;-76
2022/05/10 04:10:00;;;;;;;0.00;0.00;;;;;;;19.01;38.70;99459.63;5047108;28;20036;-81
2022/05/10 04:12:26;;;;;;;0.00;0.00;;;;;;;19.36;38.20;99462.25;5046892;28;20466;-79
2022/05/10 04:14:52;;;;;;;0.00;0.00;;;;;;;19.64;37.67;99459.88;5064298;28;20108;-80
2022/05/10 04:17:17;;;;;;;0.00;0.00;;;;;;;19.97;37.11;99461.19;5046212;28;20112;-78
2022/05/10 04:19:43;;;;;;;0.00;0.00;;;;;;;20.28;36.57;99466.22;5049211;28;20472;-83
2022/05/10 04:22:08;;;;;;;0.10;0.10;;;;;;;20.64;36.09;99467.56;5033240;28;20030;-80
2022/05/10 04:24:34;;;;;;;0.00;0.00;;;;;;;20.97;35.50;99470.63;5032119;28;20025;-80
2022/05/10 04:27:00;;;;;;;0.10;0.10;;;;;;;21.30;35.68;99475.25;5048133;28;20538;-83
2022/05/10 04:29:26;;;;;;;0.00;0.00;;;;;;;21.74;34.70;99476.34;5065601;28;20044;-80
2022/05/10 04:31:52;;;;;;;0.00;0.00;;;;;;;22.06;33.83;99475.75;5047326;28;20025;-80
2022/05/10 04:34:17;;;;;;;0.00;0.00;;;;;;;22.36;33.49;99472.72;5050471;28;20041;-80
2022/05/10 04:36:44;;;;;;;0.00;0.00;;;;;;;22.61;32.91;99470.75;5048389;28;20025;-80
2022/05/10 04:39:09;;;;;;;0.00;0.00;;;;;;;22.94;32.46;99463.47;5048774;28;20033;-80
2022/05/10 04:41:37;;;;;;;0.00;0.00;;;;;;;23.32;32.18;99475.75;5050374;28;20053;-81
2022/05/10 04:44:08;;;;;;;0.00;0.00;;;;;;;23.62;31.72;99469.84;5048847;28;20028;-80
2022/05/10 04:46:37;;;;;;;0.10;0.10;;;;;;;23.89;30.94;99470.06;5032187;28;20367;-81
2022/05/10 04:49:05;;;;;;;0.00;0.00;;;;;;;24.20;30.80;99473.91;5049927;28;20120;-81
2022/05/10 04:51:31;;;;;;;0.00;0.00;;;;;;;24.40;30.25;99461.84;5028785;28;20104;-79
2022/05/10 04:53:56;;;;;;;0.00;0.00;;;;;;;24.55;30.01;99470.34;5029269;28;20121;-80
2022/05/10 04:56:22;;;;;;;0.00;0.00;;;;;;;24.68;29.67;99473.75;5028667;28;20087;-79
2022/05/10 04:58:49;;;;;;;0.00;0.00;;;;;;;24.75;29.82;99471.94;5028856;28;20034;-79
2022/05/10 05:01:17;;;;;;;0.00;0.00;;;;;;;24.90;29.72;99477.69;5031170;28;20087;-79
2022/05/10 05:03:47;;;;;;;0.00;0.00;;;;;;;24.93;29.54;99474.22;5049227;28;20025;-79
2022/05/10 05:06:13;;;;;;;0.00;0.00;;;;;;;24.83;29.46;99466.59;5049042;28;20490;-79
2022/05/10 05:08:39;;;;;;;0.00;0.00;;;;;;;24.84;29.51;99466.25;5048713;28;20037;-79
2022/05/10 05:11:05;;;;;;;0.00;0.00;;;;;;;24.75;28.48;99469.19;5032570;28;20072;-78
2022/05/10 05:13:31;;;;;;;0.00;0.00;;;;;;;24.39;29.58;99476.66;5033736;28;20412;-79
2022/05/10 05:15:56;;;;;;;0.00;0.00;;;;;;;24.18;30.51;99470.75;5032375;28;20205;-78
2022/05/10 05:18:22;;;;;;;0.43;0.43;;;;;;;24.09;31.07;99473.69;5048887;28;20503;-79
2022/05/10 05:20:47;;;;;;;0.00;0.00;;;;;;;24.17;31.12;99471.88;5032432;28;20112;-79
2022/05/10 05:23:13;;;;;;;0.00;0.00;;;;;;;24.30;30.56;99476.88;5033968;28;20049;-79
2022/05/10 05:25:41;;;;;;;0.15;0.15;;;;;;;24.57;30.63;99477.03;5048799;28;20029;-80
2022/05/10 05:28:08;;;;;;;0.00;0.00;;;;;;;24.76;29.93;99470.78;5032249;28;20496;-80
2022/05/10 05:30:34;;;;;;;0.00;0.00;;;;;;;24.66;29.90;99467.84;5048932;28;20139;-80
2022/05/10 05:33:00;;;;;;;0.00;0.00;;;;;;;24.45;29.91;99479.94;5031701;28;20517;-82
2022/05/10 05:35:25;;;;;;;0.00;0.00;;;;;;;24.24;30.72;99482.97;5031960;28;20424;-80
2022/05/10 05:37:51;;;;;;;0.00;0.00;;;;;;;23.96;30.86;99486.66;5032060;28;20033;-80
2022/05/10 05:40:17;;;;;;;0.00;0.00;;;;;;;23.69;30.89;99483.66;5031826;28;20134;-80
2022/05/10 05:42:43;;;;;;;2.75;0.20;;;;;;;23.46;31.41;99486.22;5031918;28;20508;-78
2022/05/10 05:45:10;;;;;;;0.00;0.00;;;;;;;23.36;30.64;99484.03;5032141;28;20092;-81
2022/05/10 05:47:36;;;;;;;0.00;0.00;;;;;;;23.12;30.47;99485.72;5048682;28;20032;-79
2022/05/10 05:50:03;;;;;;;0.00;0.00;;;;;;;22.79;31.41;99489.53;5041110;28;20029;-78
2022/05/10 05:52:29;;;;;;;0.00;0.00;;;;;;;22.61;31.29;99495.28;5051930;28;20510;-80
2022/05/10 05:54:54;;;;;;;0.10;0.10;;;;;;;22.45;31.65;99495.22;5051781;28;20029;-78
2022/05/10 05:57:21;;;;;;;0.10;0.10;;;;;;;22.33;32.22;99492.50;5051698;28;20096;-79
2022/05/10 05:59:47;;;;;;;0.43;0.43;;;;;;;22.52;31.71;99489.16;5051512;28;20500;-80
2022/05/10 06:02:16;;;;;;;0.00;0.00;;;;;;;22.36;31.15;99494.53;5051514;28;20029;-78
2022/05/10 06:04:42;;;;;;;0.13;0.13;;;;;;;22.60;32.02;99492.91;5052377;28;20028;-78
2022/05/10 06:07:09;;;;;;;0.00;0.00;;;;;;;22.84;32.13;99481.91;5051428;28;20373;-78
2022/05/10 06:09:36;;;;;;;0.00;0.00;;;;;;;22.96;32.01;99483.78;5051650;28;20536;-79
2022/05/10 06:12:02;;;;;;;0.00;0.00;;;;;;;23.24;32.26;99479.44;5050045;28;20030;-78
2022/05/10 06:14:27;;;;;;;0.00;0.00;;;;;;;23.32;31.86;99483.94;5051377;28;20381;-80
2022/05/10 06:16:57;;;;;;;0.10;0.10;;;;;;;23.40;31.98;99493.09;5050772;28;20025;-80
2022/05/10 06:19:23;;;;;;;0.00;0.00;;;;;;;23.53;31.98;99489.13;5051484;28;20033;-80
2022/05/10 06:21:50;;;;;;;0.00;0.00;;;;;;;23.65;31.58;99485.53;5051085;28;20035;-78
2022/05/10 06:24:16;;;;;;;0.00;0.00;;;;;;;23.63;31.76;99487.81;5051099;28;20411;-79
2022/05/10 06:26:41;;;;;;;0.00;0.00;;;;;;;23.72;31.90;99493.13;5050876;28;20025;-79
2022/05/10 06:29:06;;;;;;;0.00;0.00;;;;;;;23.65;32.09;99489.03;5051180;28;20033;-80
2022/05/10 06:31:32;;;;;;;0.00;0.00;;;;;;;23.78;32.61;99487.00;5050910;28;20491;-80
2022/05/10 06:33:57;;;;;;;0.00;0.00;;;;;;;23.61;32.75;99484.66;5050783;28;20025;-80
2022/05/10 06:36:23;;;;;;;0.00;0.00;;;;;;;23.71;33.20;99489.56;5051038;28;20025;-80
2022/05/10 06:38:48;;;;;;;0.00;0.00;;;;;;;23.68;33.08;99484.84;5050700;28;20087;-80
2022/05/10 06:41:14;;;;;;;0.10;0.10;;;;;;;23.61;33.10;99481.94;5050615;28;20488;-80
2022/05/10 06:43:39;;;;;;;0.00;0.00;;;;;;;23.55;33.08;99486.84;5050659;28;20025;-80
2022/05/10 06:46:10;;;;;;;0.00;0.00;;;;;;;23.59;33.50;99479.53;5050915;28;20412;-80
2022/05/10 06:48:36;;;;;;;0.00;0.00;;;;;;;23.57;33.30;99487.31;5050848;28;20055;-80
2022/05/10 06:51:06;;;;;;;0.28;0.15;;;;;;;23.56;33.28;99488.44;5035854;28;20144;-81
2022/05/10 06:53:32;;;;;;;0.00;0.00;;;;;;;23.54;34.17;99487.22;5030822;28;20028;-80
2022/05/10 06:55:58;;;;;;;0.00;0.00;;;;;;;23.34;34.19;99482.44;5030614;28;20450;-80
2022/05/10 06:58:23;;;;;;;0.05;0.05;;;;;;;23.05;34.01;99477.38;5030892;28;20077;-80
2022/05/10 07:00:49;;;;;;;0.10;0.10;;;;;;;22.69;34.84;99488.09;5030439;28;20034;-80
2022/05/10 07:03:16;;;;;;;0.10;0.10;;;;;;;22.51;35.28;99482.94;5030698;28;20033;-80
2022/05/10 07:05:44;;;;;;;0.00;0.00;;;;;;;22.15;36.28;99486.50;5030447;28;20404;-80
2022/05/10 07:08:10;;;;;;;0.10;0.10;;;;;;;21.97;36.46;99483.25;5030609;28;20021;-80
2022/05/10 07:10:35;;;;;;;0.00;0.00;;;;;;;21.86;36.63;99486.44;5030613;28;20033;-80
2022/05/10 07:13:01;;;;;;;1.75;0.38;;;;;;;21.87;37.42;99482.59;5030293;28;20404;-80
2022/05/10 07:15:27;;;;;;;0.00;0.00;;;;;;;21.86;36.75;99481.00;5030550;28;20416;-80
2022/05/10 07:17:52;;;;;;;0.17;0.17;;;;;;;21.91;36.59;99479.97;5030094;28;20155;-80
2022/05/10 07:20:19;;;;;;;0.00;0.00;;;;;;;21.81;37.75;99483.13;5030376;28;20124;-79
2022/05/10 07:22:46;;;;;;;0.25;0.25;;;;;;;21.80;38.23;99485.09;5029693;28;20116;-79
2022/05/10 07:25:15;;;;;;;0.20;0.20;;;;;;;21.67;37.50;99483.50;5029985;28;20033;-80
2022/05/10 07:27:41;;;;;;;0.10;0.10;;;;;;;21.56;38.24;99478.47;5029280;28;20479;-80
2022/05/10 07:30:08;;;;;;;0.35;0.35;;;;;;;21.64;38.18;99478.72;5029822;28;20034;-80
2022/05/10 07:32:34;;;;;;;0.10;0.10;;;;;;;21.56;37.75;99477.66;5029705;28;20029;-80
2022/05/10 07:35:02;;;;;;;0.35;0.35;;;;;;;21.60;37.60;99478.59;5029760;28;20092;-80
2022/05/10 07:37:28;;;;;;;0.30;0.30;;;;;;;21.71;37.32;99482.44;5029527;28;20163;-80
2022/05/10 07:39:54;;;;;;;0.00;0.00;;;;;;;21.80;38.19;99489.72;5029657;28;20079;-80
2022/05/10 07:42:19;;;;;;;0.10;0.10;;;;;;;21.96;38.15;99484.38;5029854;28;20122;-80
2022/05/10 07:44:44;;;;;;;0.05;0.05;;;;;;;21.91;37.46;99482.69;5029677;28;20025;-80
2022/05/10 07:47:10;;;;;;;0.00;0.00;;;;;;;21.93;38.24;99476.91;5029667;28;20030;-80
2022/05/10 07:49:35;;;;;;;0.00;0.00;;;;;;;21.98;37.90;99484.84;5034017;28;20399;-80
2022/05/10 07:52:03;;;;;;;0.10;0.10;;;;;;;22.08;37.92;99487.09;5049148;28;20106;-80
2022/05/10 07:54:29;;;;;;;0.10;0.10;;;;;;;22.07;38.30;99491.75;5049590;28;20405;-80
2022/05/10 07:56:54;;;;;;;0.00;0.00;;;;;;;22.01;38.08;99486.88;5049113;28;20037;-80
2022/05/10 07:59:20;;;;;;;0.25;0.25;;;;;;;21.88;37.06;99478.72;5049854;28;20118;-81
2022/05/10 08:01:45;;;;;;;0.50;0.50;;;;;;;21.82;37.06;99488.25;5049353;28;20033;-80
2022/05/10 08:04:11;;;;;;;0.00;0.00;;;;;;;21.67;36.56;99500.59;5049664;28;20031;-80
2022/05/10 08:06:36;;;;;;;0.15;0.15;;;;;;;21.56;37.14;99491.28;5049348;28;20025;-80
2022/05/10 08:09:02;;;;;;;0.10;0.10;;;;;;;21.50;38.31;99489.91;5049398;28;20027;-80
2022/05/10 08:11:27;;;;;;;1.02;0.55;;;;;;;21.31;36.15;99493.16;5049288;28;20033;-80
2022/05/10 08:13:53;;;;;;;0.20;0.20;;;;;;;21.24;38.42;99485.56;5049205;28;20397;-80
2022/05/10 08:16:19;;;;;;;0.00;0.00;;;;;;;21.22;37.09;99485.88;5049432;28;20082;-80
2022/05/10 08:18:48;;;;;;;0.10;0.10;;;;;;;21.30;36.96;99488.84;5049113;28;20457;-80
2022/05/10 08:21:14;;;;;;;0.20;0.20;;;;;;;21.19;36.17;99475.69;5049404;28;20024;-80
2022/05/10 08:23:39;;;;;;;0.10;0.10;;;;;;;21.24;37.50;99483.63;5048997;28;20412;-80
2022/05/10 08:26:06;;;;;;;0.00;0.00;;;;;;;21.31;36.81;99479.56;5049360;28;20071;-79
2022/05/10 08:28:34;;;;;;;0.30;0.30;;;;;;;21.33;37.82;99480.03;5049072;28;20025;-81
2022/05/10 08:31:02;;;;;;;0.00;0.00;;;;;;;21.37;38.12;99476.31;5048964;28;20079;-81
2022/05/10 08:33:29;;;;;;;;;;;;;;;21.51;38.29;99480.63;5049641;28;20025;-81
2022/05/10 08:35:56;;;;;;;0.00;0.00;;;;;;;21.50;37.37;99476.31;5050752;28;19909;-81
2022/05/10 08:38:23;;;;;;;0.10;0.10;;;;;;;21.44;34.88;99481.16;5053394;28;20400;-80
2022/05/10 08:41:21;;;;;;;0.20;0.20;;;;;;;21.42;34.29;99473.34;5052928;28;20130;-80
2022/05/10 08:44:14;;;;;;;0.10;0.10;;;;;;;21.41;34.97;99479.91;5038984;28;20048;-80
2022/05/10 08:46:44;;;;;;;0.52;0.52;;;;;;;21.32;33.48;99481.16;5047911;28;20102;-81
2022/05/10 08:49:18;;;;;;;0.20;0.20;;;;;;;21.28;32.98;99476.38;5052187;28;20021;-81
2022/05/10 08:51:44;;;;;;;0.10;0.10;;;;;;;21.21;33.52;99481.56;5033031;28;20511;-81
2022/05/10 08:54:10;;;;;;;0.05;0.05;;;;;;;21.17;32.81;99498.91;5034111;28;20033;-81
2022/05/10 08:56:45;;;;;;;0.10;0.10;;;;;;;21.15;33.63;99476.69;5033115;28;20026;-81
2022/05/10 08:59:25;;;;;;;0.10;0.10;;;;;;;21.23;33.78;99478.53;5034264;28;20514;-81
2022/05/10 09:02:03;;;;;;;0.20;0.20;;;;;;;21.32;34.87;99475.72;5032461;28;20036;-80
2022/05/10 09:04:46;;;;;;;0.38;0.38;;;;;;;21.26;32.82;99475.13;5032996;28;20021;-81
2022/05/10 09:07:24;;;;;;;0.00;0.00;;;;;;;21.36;33.17;99479.34;5032726;28;20037;-81
2022/05/10 09:10:02;;;;;;;0.52;0.52;;;;;;;21.28;30.57;99481.03;5032640;28;20172;-81
2022/05/10 09:12:29;;;;;;;0.00;0.00;;;;;;;21.32;31.02;99476.50;5032706;28;20489;-81
2022/05/10 09:15:04;;;;;;;0.17;0.17;;;;;;;21.25;30.67;99477.06;5032533;28;20397;-81
2022/05/10 09:17:33;;;;;;;0.13;0.13;;;;;;;21.28;31.30;99472.88;5032533;28;20032;-81
2022/05/10 09:19:58;;;;;;;0.25;0.25;;;;;;;21.17;29.76;99471.72;5033656;28;20060;-82
2022/05/10 09:22:42;;;;;;;0.17;0.17;;;;;;;21.10;30.64;99464.91;5032226;28;20063;-81
2022/05/10 09:25:24;;;;;;;0.00;0.00;;;;;;;21.16;29.85;99470.91;5032251;28;20026;-80
2022/05/10 09:27:51;;;;;;;3.40;0.22;;;;;;;21.17;28.56;99475.22;5032958;28;20053;-80
2022/05/10 09:30:32;;;;;;;1.38;0.57;;;;;;;21.20;28.75;99466.41;5032359;28;20108;-80
2022/05/10 09:36:10;;;;;;;0.25;0.25;;;;;;;21.23;30.34;99454.84;5033392;28;20519;-79
2022/05/10 09:38:47;;;;;;;0.00;0.00;;;;;;;21.23;30.75;99456.78;5032136;28;20099;-80
2022/05/10 09:41:25;;;;;;;0.38;0.30;;;;;;;21.26;31.06;99458.81;5031894;28;20049;-81
2022/05/10 09:43:52;;;;;;;0.20;0.20;;;;;;;21.26;30.23;99459.63;5031578;28;20026;-81
2022/05/10 09:46:17;;;;;;;0.00;0.00;;;;;;;21.29;31.05;99449.97;5032140;28;20041;-79
2022/05/10 09:48:43;;;;;;;0.00;0.00;;;;;;;21.31;31.13;99453.13;5032838;28;20026;-80
2022/05/10 09:51:36;;;;;;;0.10;0.10;;;;;;;21.43;32.81;99441.47;5048941;28;20123;-78
2022/05/10 09:54:19;;;;;;;0.10;0.10;;;;;;;21.48;31.25;99448.63;5051793;28;20025;-80
2022/05/10 09:56:50;;;;;;;0.22;0.22;;;;;;;21.54;31.85;99439.91;5051442;28;20032;-79
2022/05/10 09:59:19;;;;;;;0.10;0.10;;;;;;;21.59;32.16;99442.44;5051892;28;20025;-79
2022/05/10 10:01:48;;;;;;;0.10;0.10;;;;;;;21.71;32.10;99432.69;5051247;28;20036;-80
2022/05/10 10:04:21;;;;;;;14.18;2.30;;;;;;;21.67;31.55;99448.09;5051748;28;20049;-80
2022/05/10 10:07:03;;;;;;;0.45;0.45;;;;;;;21.52;32.00;99435.94;5051263;28;20029;-81
2022/05/10 10:09:35;;;;;;;0.10;0.10;;;;;;;21.54;32.96;99426.28;5051614;28;20021;-81
2022/05/10 10:12:01;;;;;;;0.10;0.10;;;;;;;21.58;31.67;99440.84;5067906;28;20120;-81
2022/05/10 10:14:54;;;;;;;0.00;0.00;;;;;;;21.51;29.28;99440.59;5051538;28;20048;-81
2022/05/10 10:17:28;;;;;;;0.75;0.75;;;;;;;21.50;29.90;99419.16;5049164;28;20091;-81
2022/05/10 10:20:01;;;;;;;0.10;0.10;;;;;;;21.57;30.61;99420.22;5051091;28;20024;-81
2022/05/10 10:22:33;;;;;;;0.10;0.10;;;;;;;;;;5051327;28;20029;-81
2022/05/10 10:25:24;;;;;;;0.00;0.00;;;;;;;21.70;30.02;99428.34;5052232;28;20545;-81
2022/05/10 10:28:34;;;;;;;0.13;0.13;;;;;;;21.71;28.51;99414.41;5052095;28;20063;-81
2022/05/10 10:31:10;;;;;;;0.00;0.00;;;;;;;21.76;29.92;99418.81;5052572;28;20341;-81
2022/05/10 10:33:46;;;;;;;0.28;0.28;;;;;;;21.82;31.68;99403.06;5050916;28;20036;-80
2022/05/10 10:36:22;;;;;;;0.10;0.10;;;;;;;22.02;31.94;99418.47;5051040;28;20442;-80
2022/05/10 10:38:59;;;;;;;0.00;0.00;;;;;;;22.12;31.72;99403.56;5050481;28;20048;-80
2022/05/10 10:41:33;;;;;;;0.00;0.00;;;;;;;22.21;29.17;99403.41;5050837;28;20118;-80
2022/05/10 10:44:09;;;;;;;0.00;0.00;;;;;;;22.22;28.70;99394.91;5050677;28;20017;-80
2022/05/10 10:46:43;;;;;;;0.65;0.65;;;;;;;22.22;25.99;99411.25;5050699;28;20021;-80
2022/05/10 10:49:14;;;;;;;0.03;0.03;;;;;;;22.12;25.39;99398.13;5049927;28;20044;-80
2022/05/10 10:51:41;;;;;;;0.55;0.55;;;;;;;22.11;26.20;99409.38;5030656;28;20078;-80
2022/05/10 10:54:15;;;;;;;0.00;0.00;;;;;;;22.14;28.24;99387.69;5032400;28;20512;-80
2022/05/10 10:57:28;;;;;;;0.00;0.00;;;;;;;22.18;26.21;99402.19;5030544;28;20022;-80
2022/05/10 11:00:05;;;;;;;0.00;0.00;;;;;;;22.14;25.43;99387.69;5014294;28;20037;-82
2022/05/10 11:02:52;;;;;;;0.30;0.30;;;;;;;22.18;24.95;99393.19;5030764;28;20026;-80
2022/05/10 11:05:31;;;;;;;0.05;0.05;;;;;;;22.11;23.44;99377.47;5047340;28;20082;-79
2022/05/10 11:08:14;;;;;;;0.10;0.10;;;;;;;22.15;24.32;99381.06;5031747;28;20025;-79
2022/05/10 11:10:48;;;;;;;0.52;0.52;;;;;;;22.19;23.73;99373.81;5030299;28;20083;-80
2022/05/10 11:13:56;;;;;;;0.00;0.00;;;;;;;22.14;22.82;99384.97;5030610;28;20496;-80
2022/05/10 11:16:36;;;;;;;3.65;0.35;;;;;;;22.13;23.04;99372.47;5024349;28;20508;-80
2022/05/10 11:19:40;;;;;;;0.10;0.10;;;;;;;22.10;21.81;99375.88;5030356;28;20108;-79
2022/05/10 11:22:30;;;;;;;0.30;0.30;;;;;;;22.16;21.98;99365.53;5030259;28;20091;-81
2022/05/10 11:25:23;;;;;;;0.00;0.00;;;;;;;22.22;21.77;99364.94;5030176;28;20030;-81
2022/05/10 11:28:07;;;;;;;1.30;0.88;;;;;;;22.32;22.33;99363.63;5029566;28;20401;-80
2022/05/10 11:30:45;;;;;;;0.00;0.00;;;;;;;22.27;19.21;99368.56;5030087;28;20021;-81
2022/05/10 11:33:33;;;;;;;0.03;0.03;;;;;;;22.26;20.61;99361.53;5031525;28;20489;-80
2022/05/10 11:36:25;;;;;;;0.38;0.38;;;;;;;22.19;20.17;99367.56;5029655;28;20095;-80
2022/05/10 11:39:25;;;;;;;0.08;0.08;;;;;;;22.15;20.35;99362.00;5029900;28;20026;-80
2022/05/10 11:42:41;;;;;;;0.00;0.00;;;;;;;22.22;21.21;99355.97;5029699;28;20061;-80
2022/05/10 11:45:44;;;;;;;0.00;0.00;;;;;;;22.28;20.37;99348.38;5029852;28;20053;-80
2022/05/10 11:48:34;;;;;;;0.10;0.10;;;;;;;22.38;20.20;99356.84;5046740;28;20334;-81
2022/05/10 11:54:28;;;;;;;0.10;0.10;;;;;;;22.38;19.05;99337.75;5050772;28;20087;-81
2022/05/10 11:56:55;;;;;;;0.70;0.30;;;;;;;22.34;17.99;99344.25;5040262;28;20041;-81
2022/05/10 11:59:24;;;;;;;0.00;0.00;;;;;;;22.38;18.94;99340.47;5049805;28;20025;-82
2022/05/10 12:01:55;;;;;;;0.15;0.15;;;;;;;22.42;19.86;99326.19;5050609;28;20095;-81
2022/05/10 12:04:35;;;;;;;0.05;0.05;;;;;;;22.46;19.27;99332.50;5049511;28;20079;-81
2022/05/10 12:07:18;;;;;;;0.30;0.30;;;;;;;22.52;19.79;99314.75;5049013;28;20517;-80